Time;durP1;ratioP1;P1;durP2;ratioP2;P2;SDS_P1;SDS_P2;PMS_P1;PMS_P2;Temp;Humidity;BMP_temperature;BMP_pressure;BME280_temperature;BME280_humidity;BME280_pressure;Samples;Min_cycle;Max_cycle;Signal;HPM_P1;HPM_P2
2023/03/16 00:01:35;;;;;;;;;;;;;;;0.77;66.45;97233.09;108689;1251;95647;-76
2023/03/16 00:04:03;;;;;;;;;;;;;;;0.80;66.35;97233.74;108882;1251;95568;-77
2023/03/16 00:06:31;;;;;;;;;;;;;;;0.81;66.36;97231.34;108937;1251;103658;-79
2023/03/16 00:08:59;;;;;;;;;;;;;;;0.83;66.31;97232.35;108901;1251;101492;-77
2023/03/16 00:11:27;;;;;;;;;;;;;;;0.85;66.16;97234.39;108922;1251;100062;-77
2023/03/16 00:13:55;;;;;;;;;;;;;;;0.88;66.12;97233.10;108893;1251;95512;-79
2023/03/16 00:16:24;;;;;;;;;;;;;;;0.88;65.99;97233.60;108760;1251;96503;-77
2023/03/16 00:18:52;;;;;;;;;;;;;;;0.90;66.01;97233.75;108928;1251;112067;-79
2023/03/16 00:21:20;;;;;;;;;;;;;;;0.91;65.98;97232.90;108876;1251;101518;-76
2023/03/16 00:23:48;;;;;;;;;;;;;;;0.94;66.03;97234.95;108907;1251;100097;-76
2023/03/16 00:26:15;;;;;;;;;;;;;;;0.95;66.00;97238.33;108893;1251;95516;-76
2023/03/16 00:28:43;;;;;;;;;;;;;;;0.98;66.04;97241.61;108859;1251;96760;-76
2023/03/16 00:31:12;;;;;;;;;;;;;;;1.00;66.05;97241.59;108758;1251;103338;-78
2023/03/16 00:33:41;;;;;;;;;;;;;;;1.03;65.99;97246.23;108936;1251;101280;-79
2023/03/16 00:36:10;;;;;;;;;;;;;;;1.05;65.91;97245.48;108869;1251;100491;-78
2023/03/16 00:38:39;;;;;;;;;;;;;;;1.07;65.86;97244.38;108916;1251;95556;-76
2023/03/16 00:41:08;;;;;;;;;;;;;;;1.11;65.79;97243.85;108707;1257;95639;-76
2023/03/16 00:43:39;;;;;;;;;;;;;;;1.11;65.77;97243.52;108928;1251;104564;-79
2023/03/16 00:46:08;;;;;;;;;;;;;;;1.11;65.83;97246.00;108944;1251;101558;-76
2023/03/16 00:48:38;;;;;;;;;;;;;;;1.08;65.61;97247.44;108875;1251;100172;-78
2023/03/16 00:51:07;;;;;;;;;;;;;;;1.06;65.79;97250.36;108923;1251;95550;-77
2023/03/16 00:53:36;;;;;;;;;;;;;;;1.05;65.71;97251.73;108867;1251;95699;-77
2023/03/16 00:56:04;;;;;;;;;;;;;;;1.03;65.72;97254.77;108938;1254;103741;-77
2023/03/16 00:58:34;;;;;;;;;;;;;;;1.00;65.74;97257.50;108892;1251;101032;-79
2023/03/16 01:01:03;;;;;;;;;;;;;;;0.96;65.79;97255.23;108819;1252;99685;-76
2023/03/16 01:03:31;;;;;;;;;;;;;;;0.94;65.74;97255.66;108916;1251;95520;-79
2023/03/16 01:06:04;;;;;;;;;;;;;;;0.95;65.81;97258.63;108931;1251;95634;-76
2023/03/16 01:08:33;;;;;;;;;;;;;;;0.96;65.83;97259.75;108887;1251;104550;-78
2023/03/16 01:11:09;;;;;;;;;;;;;;;0.92;65.82;97265.27;108910;1251;101423;-76
2023/03/16 01:13:37;;;;;;;;;;;;;;;0.90;65.80;97266.01;108758;1251;99946;-78
2023/03/16 01:16:05;;;;;;;;;;;;;;;0.92;65.83;97268.65;108881;1252;95546;-76
2023/03/16 01:18:34;;;;;;;;;;;;;;;0.92;65.92;97271.58;108733;1251;95593;-75
2023/03/16 01:21:02;;;;;;;;;;;;;;;0.92;65.93;97271.45;108920;1251;103339;-76
2023/03/16 01:23:31;;;;;;;;;;;;;;;0.92;65.82;97273.96;108982;1251;100237;-76
2023/03/16 01:25:59;;;;;;;;;;;;;;;0.91;65.83;97275.63;108916;1251;99918;-77
2023/03/16 01:28:28;;;;;;;;;;;;;;;0.94;65.79;97279.20;108880;1251;95668;-78
2023/03/16 01:31:01;;;;;;;;;;;;;;;0.95;65.83;97279.82;108925;1251;95644;-78
2023/03/16 01:33:30;;;;;;;;;;;;;;;0.89;65.64;97282.55;108955;1251;103795;-76
2023/03/16 01:36:08;;;;;;;;;;;;;;;0.86;65.78;97283.61;108714;1253;100460;-76
2023/03/16 01:38:37;;;;;;;;;;;;;;;0.85;65.78;97286.72;108678;1252;99756;-76
2023/03/16 01:41:05;;;;;;;;;;;;;;;0.85;65.84;97287.23;108913;1251;95788;-77
2023/03/16 01:43:34;;;;;;;;;;;;;;;0.83;65.90;97288.65;108785;1251;95968;-76
2023/03/16 01:46:05;;;;;;;;;;;;;;;0.80;65.99;97294.11;108880;1251;102839;-77
2023/03/16 01:48:42;;;;;;;;;;;;;;;0.78;66.14;97294.17;108858;1254;101342;-77
2023/03/16 01:51:14;;;;;;;;;;;;;;;0.77;65.92;97292.61;108887;1252;100434;-77
2023/03/16 01:53:45;;;;;;;;;;;;;;;0.81;66.06;97294.55;108897;1251;95498;-78
2023/03/16 01:56:17;;;;;;;;;;;;;;;0.85;66.12;97296.13;108945;1251;95687;-77
2023/03/16 01:58:46;;;;;;;;;;;;;;;0.87;66.03;97298.66;108942;1251;103625;-76
2023/03/16 02:01:13;;;;;;;;;;;;;;;0.88;66.06;97300.40;108864;1251;101428;-77
2023/03/16 02:03:43;;;;;;;;;;;;;;;0.87;66.12;97303.65;108707;1251;99834;-76
2023/03/16 02:06:13;;;;;;;;;;;;;;;0.89;66.04;97306.13;108910;1251;95527;-77
2023/03/16 02:08:44;;;;;;;;;;;;;;;0.89;66.16;97311.10;108935;1251;95779;-76
2023/03/16 02:11:16;;;;;;;;;;;;;;;0.86;66.23;97312.04;108985;1251;103828;-76
2023/03/16 02:13:45;;;;;;;;;;;;;;;0.84;66.19;97316.02;108740;1251;101633;-77
2023/03/16 02:16:18;;;;;;;;;;;;;;;0.82;66.22;97318.23;108736;1251;99517;-76
2023/03/16 02:18:47;;;;;;;;;;;;;;;0.79;66.28;97314.39;108890;1251;95537;-76
2023/03/16 02:21:21;;;;;;;;;;;;;;;0.79;66.28;97314.95;108867;1251;95693;-77
2023/03/16 02:23:50;;;;;;;;;;;;;;;0.80;66.32;97318.44;108935;1251;103707;-79
2023/03/16 02:26:50;;;;;;;;;;;;;;;0.79;66.39;97321.02;108818;1251;100050;-77
2023/03/16 02:29:33;;;;;;;;;;;;;;;0.76;66.46;97326.94;108468;1257;99040;-77
2023/03/16 02:32:01;;;;;;;;;;;;;;;0.77;66.52;97333.02;108424;1257;95647;-76
2023/03/16 02:34:29;;;;;;;;;;;;;;;0.78;66.47;97333.10;108365;1257;95667;-76
2023/03/16 02:36:58;;;;;;;;;;;;;;;0.79;66.47;97330.55;108468;1256;102586;-79
2023/03/16 02:39:26;;;;;;;;;;;;;;;0.81;66.46;97330.48;108558;1256;101120;-77
2023/03/16 02:41:54;;;;;;;;;;;;;;;0.84;66.42;97335.36;108472;1256;98651;-77
2023/03/16 02:44:27;;;;;;;;;;;;;;;0.85;66.39;97337.34;108368;1256;95564;-77
2023/03/16 02:46:57;;;;;;;;;;;;;;;0.85;66.35;97344.12;108521;1257;95812;-77
2023/03/16 02:49:33;;;;;;;;;;;;;;;0.84;66.49;97348.31;108250;1257;110827;-78
2023/03/16 02:52:01;;;;;;;;;;;;;;;0.85;66.50;97344.77;108489;1256;101489;-79
2023/03/16 02:54:29;;;;;;;;;;;;;;;0.84;66.32;97351.44;108449;1256;100271;-77
2023/03/16 02:56:57;;;;;;;;;;;;;;;0.84;66.30;97356.85;108438;1257;95577;-77
2023/03/16 02:59:25;;;;;;;;;;;;;;;0.80;66.33;97361.98;108507;1257;95642;-76
2023/03/16 03:01:53;;;;;;;;;;;;;;;0.72;66.47;97365.80;108404;1260;103587;-78
2023/03/16 03:04:22;;;;;;;;;;;;;;;0.71;66.61;97370.63;108453;1251;101888;-77
2023/03/16 03:06:51;;;;;;;;;;;;;;;0.73;66.72;97375.23;108918;1251;99476;-76
2023/03/16 03:09:21;;;;;;;;;;;;;;;0.75;66.63;97375.74;108900;1251;95589;-79
2023/03/16 03:11:49;;;;;;;;;;;;;;;0.77;66.44;97377.52;108886;1251;95598;-78
2023/03/16 03:14:17;;;;;;;;;;;;;;;0.79;66.50;97376.39;108890;1251;103634;-76
2023/03/16 03:16:45;;;;;;;;;;;;;;;0.79;66.57;97375.75;108913;1251;101662;-77
2023/03/16 03:19:13;;;;;;;;;;;;;;;0.74;66.62;97378.66;108849;1251;99885;-76
2023/03/16 03:21:41;;;;;;;;;;;;;;;0.66;66.47;97385.49;108970;1251;95537;-76
2023/03/16 03:24:10;;;;;;;;;;;;;;;0.65;66.61;97389.50;108936;1251;95692;-76
2023/03/16 03:26:38;;;;;;;;;;;;;;;0.66;66.66;97389.52;108920;1251;103746;-78
2023/03/16 03:29:06;;;;;;;;;;;;;;;0.67;66.77;97390.33;108745;1251;101332;-77
2023/03/16 03:31:33;;;;;;;;;;;;;;;0.69;66.65;97392.14;108740;1251;99853;-77
2023/03/16 03:34:05;;;;;;;;;;;;;;;0.70;66.68;97400.66;108905;1251;95589;-77
2023/03/16 03:36:33;;;;;;;;;;;;;;;0.69;66.70;97402.91;108968;1251;95721;-78
2023/03/16 03:39:03;;;;;;;;;;;;;;;0.59;66.75;97402.42;108961;1250;103279;-78
2023/03/16 03:41:32;;;;;;;;;;;;;;;0.48;66.78;97407.51;108920;1251;101156;-77
2023/03/16 03:44:00;;;;;;;;;;;;;;;0.36;66.84;97407.41;108894;1251;100306;-77
2023/03/16 03:46:28;;;;;;;;;;;;;;;0.24;66.86;97410.34;108840;1251;95708;-78
2023/03/16 03:49:00;;;;;;;;;;;;;;;0.14;67.08;97413.79;108900;1251;95595;-77
2023/03/16 03:51:28;;;;;;;;;;;;;;;0.06;67.25;97416.45;108919;1250;103477;-77
2023/03/16 03:53:56;;;;;;;;;;;;;;;0.04;67.43;97418.94;108875;1251;101489;-77
2023/03/16 03:56:25;;;;;;;;;;;;;;;0.01;67.65;97419.79;108848;1251;99950;-78
2023/03/16 03:58:53;;;;;;;;;;;;;;;-0.08;67.74;97422.35;108904;1251;95793;-80
2023/03/16 04:01:21;;;;;;;;;;;;;;;-0.18;67.81;97426.02;108804;1251;95736;-77
2023/03/16 04:03:49;;;;;;;;;;;;;;;-0.26;67.92;97428.23;108940;1250;103957;-77
2023/03/16 04:06:17;;;;;;;;;;;;;;;-0.34;68.26;97432.77;108915;1251;101432;-79
2023/03/16 04:08:45;;;;;;;;;;;;;;;-0.38;68.45;97433.20;108871;1251;99895;-79
2023/03/16 04:11:13;;;;;;;;;;;;;;;-0.42;68.56;97431.95;108694;1251;95603;-78
2023/03/16 04:13:41;;;;;;;;;;;;;;;-0.44;68.80;97434.39;108933;1251;95770;-76
2023/03/16 04:16:09;;;;;;;;;;;;;;;-0.48;68.80;97436.06;109008;1251;103399;-77
2023/03/16 04:18:38;;;;;;;;;;;;;;;-0.48;68.80;97439.02;108952;1251;101463;-78
2023/03/16 04:21:06;;;;;;;;;;;;;;;-0.45;68.81;97442.30;108722;1251;99297;-77
2023/03/16 04:23:34;;;;;;;;;;;;;;;-0.39;68.78;97444.42;108925;1251;95522;-80
2023/03/16 04:26:02;;;;;;;;;;;;;;;-0.34;68.90;97447.30;108958;1251;95709;-76
2023/03/16 04:28:31;;;;;;;;;;;;;;;-0.29;68.76;97446.38;108909;1251;103729;-77
2023/03/16 04:31:03;;;;;;;;;;;;;;;-0.28;68.68;97450.48;108898;1251;101125;-76
2023/03/16 04:33:32;;;;;;;;;;;;;;;-0.33;68.79;97454.10;108722;1254;98765;-77
2023/03/16 04:36:01;;;;;;;;;;;;;;;-0.38;68.94;97459.50;108880;1251;95579;-77
2023/03/16 04:38:32;;;;;;;;;;;;;;;-0.44;68.93;97462.67;108690;1251;95696;-77
2023/03/16 04:41:01;;;;;;;;;;;;;;;-0.52;69.07;97465.09;108908;1251;103543;-77
2023/03/16 04:43:33;;;;;;;;;;;;;;;-0.53;69.35;97468.55;108955;1251;101619;-76
2023/03/16 04:46:01;;;;;;;;;;;;;;;-0.52;69.34;97466.70;108915;1251;100081;-76
2023/03/16 04:48:31;;;;;;;;;;;;;;;-0.53;69.30;97466.60;108875;1251;95727;-80
2023/03/16 04:51:00;;;;;;;;;;;;;;;-0.54;69.56;97467.05;108994;1251;96369;-77
2023/03/16 04:53:28;;;;;;;;;;;;;;;-0.58;69.57;97466.67;108955;1251;103840;-76
2023/03/16 04:55:56;;;;;;;;;;;;;;;-0.65;69.60;97467.55;108899;1251;101150;-77
2023/03/16 04:58:24;;;;;;;;;;;;;;;-0.73;69.70;97465.98;108878;1251;99535;-78
2023/03/16 05:00:53;;;;;;;;;;;;;;;-0.78;69.80;97472.38;108920;1251;95647;-74
2023/03/16 05:03:21;;;;;;;;;;;;;;;-0.77;70.00;97475.02;108651;1251;95924;-75
2023/03/16 05:05:50;;;;;;;;;;;;;;;-0.76;69.96;97476.30;108699;1251;103666;-79
2023/03/16 05:08:18;;;;;;;;;;;;;;;-0.75;70.01;97477.66;108950;1251;101515;-76
2023/03/16 05:10:47;;;;;;;;;;;;;;;-0.78;70.23;97478.38;108853;1251;100061;-75
2023/03/16 05:13:15;;;;;;;;;;;;;;;-0.78;70.29;97481.23;108913;1251;95542;-77
2023/03/16 05:15:43;;;;;;;;;;;;;;;-0.77;70.28;97481.17;108944;1251;95835;-77
2023/03/16 05:18:11;;;;;;;;;;;;;;;-0.76;70.12;97489.16;108935;1251;103220;-79
2023/03/16 05:20:39;;;;;;;;;;;;;;;-0.72;70.20;97492.36;108998;1251;102311;-79
2023/03/16 05:23:07;;;;;;;;;;;;;;;-0.65;70.31;97492.63;108917;1251;100115;-76
2023/03/16 05:25:35;;;;;;;;;;;;;;;-0.60;70.21;97493.26;108746;1251;96471;-76
2023/03/16 05:28:04;;;;;;;;;;;;;;;-0.57;70.28;97494.20;108900;1251;95929;-77
2023/03/16 05:30:32;;;;;;;;;;;;;;;-0.51;70.31;97498.73;108959;1251;103732;-77
2023/03/16 05:33:00;;;;;;;;;;;;;;;-0.44;70.21;97497.54;108956;1251;100039;-76
2023/03/16 05:35:28;;;;;;;;;;;;;;;-0.37;70.22;97498.02;108919;1251;99922;-76
2023/03/16 05:37:56;;;;;;;;;;;;;;;-0.30;70.15;97499.85;108899;1251;95524;-78
2023/03/16 05:40:24;;;;;;;;;;;;;;;-0.24;69.97;97499.78;108978;1251;96446;-77
2023/03/16 05:42:55;;;;;;;;;;;;;;;-0.20;70.01;97502.96;108873;1251;103663;-78
2023/03/16 05:45:24;;;;;;;;;;;;;;;-0.17;70.00;97503.94;108729;1251;100217;-75
2023/03/16 05:47:52;;;;;;;;;;;;;;;-0.13;69.92;97504.23;108887;1251;99508;-77
2023/03/16 05:50:20;;;;;;;;;;;;;;;-0.07;69.90;97510.96;108694;1251;95787;-78
2023/03/16 05:52:48;;;;;;;;;;;;;;;-0.03;69.96;97516.05;108864;1251;95730;-77
2023/03/16 05:55:17;;;;;;;;;;;;;;;-0.01;69.69;97516.77;108919;1251;102275;-77
2023/03/16 05:57:45;;;;;;;;;;;;;;;0.02;69.65;97521.10;108892;1251;101380;-76
2023/03/16 06:00:15;;;;;;;;;;;;;;;0.03;69.60;97521.35;108735;1252;99137;-79
2023/03/16 06:02:44;;;;;;;;;;;;;;;0.01;69.54;97523.79;108872;1251;95513;-77
2023/03/16 06:05:12;;;;;;;;;;;;;;;0.02;69.62;97526.73;108966;1251;95655;-76
2023/03/16 06:07:40;;;;;;;;;;;;;;;-0.02;69.56;97526.06;108709;1251;102557;-76
2023/03/16 06:10:09;;;;;;;;;;;;;;;-0.07;69.36;97529.00;108421;1251;101754;-77
2023/03/16 06:12:37;;;;;;;;;;;;;;;-0.11;69.48;97530.02;108737;1251;100796;-79
2023/03/16 06:15:07;;;;;;;;;;;;;;;-0.15;69.53;97535.59;108924;1251;95497;-77
2023/03/16 06:17:35;;;;;;;;;;;;;;;-0.22;69.52;97536.23;108941;1251;96513;-77
2023/03/16 06:20:10;;;;;;;;;;;;;;;-0.22;69.45;97537.84;108889;1251;103471;-77
2023/03/16 06:22:39;;;;;;;;;;;;;;;-0.22;69.52;97536.55;108977;1251;101247;-79
2023/03/16 06:25:08;;;;;;;;;;;;;;;-0.21;69.76;97539.42;108736;1251;99980;-77
2023/03/16 06:27:37;;;;;;;;;;;;;;;-0.19;69.77;97542.81;108706;1251;95607;-76
2023/03/16 06:30:06;;;;;;;;;;;;;;;-0.20;69.75;97543.82;108973;1251;95597;-78
2023/03/16 06:32:34;;;;;;;;;;;;;;;-0.19;69.69;97546.55;108972;1250;103251;-77
2023/03/16 06:35:02;;;;;;;;;;;;;;;-0.20;69.58;97547.20;108934;1250;101362;-76
2023/03/16 06:37:31;;;;;;;;;;;;;;;-0.21;69.63;97549.92;108941;1251;99898;-77
2023/03/16 06:39:59;;;;;;;;;;;;;;;-0.21;69.62;97553.25;108900;1251;95576;-78
2023/03/16 06:42:27;;;;;;;;;;;;;;;-0.20;69.67;97558.14;108769;1251;96043;-77
2023/03/16 06:44:55;;;;;;;;;;;;;;;-0.17;69.71;97561.95;108731;1251;102552;-79
2023/03/16 06:47:23;;;;;;;;;;;;;;;-0.15;69.65;97563.18;108957;1251;101352;-77
2023/03/16 06:49:54;;;;;;;;;;;;;;;-0.15;69.56;97563.13;108939;1251;99995;-76
2023/03/16 06:52:22;;;;;;;;;;;;;;;-0.10;69.49;97566.38;108872;1251;95628;-80
2023/03/16 06:54:50;;;;;;;;;;;;;;;-0.06;69.49;97568.52;108687;1251;95741;-76
2023/03/16 06:57:18;;;;;;;;;;;;;;;-0.04;69.46;97574.34;108966;1251;103905;-74
2023/03/16 06:59:46;;;;;;;;;;;;;;;0.03;69.58;97577.27;108968;1251;101413;-75
2023/03/16 07:02:14;;;;;;;;;;;;;;;0.09;69.36;97579.83;108878;1251;99864;-74
2023/03/16 07:04:42;;;;;;;;;;;;;;;0.14;69.18;97580.79;108930;1251;95595;-75
2023/03/16 07:07:10;;;;;;;;;;;;;;;0.17;69.17;97583.33;108821;1252;95665;-74
2023/03/16 07:09:38;;;;;;;;;;;;;;;0.20;69.04;97585.06;108828;1251;103599;-74
2023/03/16 07:12:06;;;;;;;;;;;;;;;0.24;68.98;97589.38;108921;1251;100943;-75
2023/03/16 07:14:34;;;;;;;;;;;;;;;0.35;69.03;97591.98;108677;1251;99915;-76
2023/03/16 07:17:02;;;;;;;;;;;;;;;0.45;69.07;97594.77;108655;1252;95637;-74
2023/03/16 07:19:31;;;;;;;;;;;;;;;0.53;68.91;97591.67;108691;1251;95691;-75
2023/03/16 07:21:59;;;;;;;;;;;;;;;0.56;68.70;97595.99;108951;1251;102689;-74
2023/03/16 07:24:27;;;;;;;;;;;;;;;0.56;68.57;97598.59;108935;1250;101825;-76
2023/03/16 07:26:55;;;;;;;;;;;;;;;0.57;68.36;97596.02;108899;1251;99639;-74
2023/03/16 07:29:23;;;;;;;;;;;;;;;0.63;68.38;97594.95;108987;1251;95556;-74
2023/03/16 07:31:52;;;;;;;;;;;;;;;0.69;68.35;97595.26;108732;1251;95656;-76
2023/03/16 07:34:20;;;;;;;;;;;;;;;0.74;68.28;97601.72;108967;1251;103346;-74
2023/03/16 07:36:51;;;;;;;;;;;;;;;0.87;68.26;97602.23;108912;1251;101806;-74
2023/03/16 07:39:20;;;;;;;;;;;;;;;1.12;68.16;97601.08;108783;1251;99016;-76
2023/03/16 07:41:48;;;;;;;;;;;;;;;1.46;68.05;97601.74;108906;1251;95799;-74
2023/03/16 07:44:16;;;;;;;;;;;;;;;1.88;67.68;97603.16;108917;1251;95621;-74
2023/03/16 07:46:44;;;;;;;;;;;;;;;2.24;67.06;97603.25;108962;1251;103607;-73
2023/03/16 07:49:12;;;;;;;;;;;;;;;2.65;66.61;97603.67;108845;1251;100231;-74
2023/03/16 07:51:40;;;;;;;;;;;;;;;3.13;65.89;97596.69;108917;1251;98288;-75
2023/03/16 07:54:09;;;;;;;;;;;;;;;3.53;65.22;97596.20;108923;1251;95652;-74
2023/03/16 07:56:37;;;;;;;;;;;;;;;3.95;64.77;97594.55;108888;1251;95591;-75
2023/03/16 07:59:05;;;;;;;;;;;;;;;4.26;63.88;97594.90;108987;1250;103735;-74
2023/03/16 08:01:33;;;;;;;;;;;;;;;4.46;63.48;97596.92;108769;1251;208078;-75
2023/03/16 08:04:01;;;;;;;;;;;;;;;4.82;63.12;97597.04;108713;1251;99929;-74
2023/03/16 08:06:29;;;;;;;;;;;;;;;5.09;62.42;97595.36;108859;1251;95563;-74
2023/03/16 08:08:58;;;;;;;;;;;;;;;5.26;61.53;97596.27;108992;1251;95897;-74
2023/03/16 08:11:26;;;;;;;;;;;;;;;5.28;60.85;97594.49;108831;1251;103599;-74
2023/03/16 08:13:55;;;;;;;;;;;;;;;5.19;60.47;97599.95;108875;1251;101611;-74
2023/03/16 08:16:24;;;;;;;;;;;;;;;5.08;60.31;97602.53;108724;1251;99295;-75
2023/03/16 08:18:52;;;;;;;;;;;;;;;4.81;60.10;97611.18;108881;1251;95597;-77
2023/03/16 08:21:20;;;;;;;;;;;;;;;4.61;59.97;97614.00;108726;1251;96657;-76
2023/03/16 08:23:49;;;;;;;;;;;;;;;4.49;60.11;97610.26;108918;1251;103520;-76
2023/03/16 08:26:17;;;;;;;;;;;;;;;4.44;60.01;97610.87;108870;1252;101496;-78
2023/03/16 08:28:46;;;;;;;;;;;;;;;4.35;60.05;97611.54;108809;1251;99822;-77
2023/03/16 08:31:15;;;;;;;;;;;;;;;4.27;59.89;97614.73;108900;1251;95603;-77
2023/03/16 08:33:44;;;;;;;;;;;;;;;4.20;59.44;97612.98;108975;1251;96227;-77
2023/03/16 08:36:14;;;;;;;;;;;;;;;4.09;59.26;97618.14;108908;1251;103211;-76
2023/03/16 08:38:43;;;;;;;;;;;;;;;3.99;59.16;97616.52;108935;1250;101053;-76
2023/03/16 08:41:13;;;;;;;;;;;;;;;3.87;59.37;97615.84;108887;1251;99113;-77
2023/03/16 08:43:41;;;;;;;;;;;;;;;3.82;59.14;97618.37;108807;1252;95578;-77
2023/03/16 08:46:09;;;;;;;;;;;;;;;3.70;58.03;97613.93;108939;1251;95565;-77
2023/03/16 08:48:37;;;;;;;;;;;;;;;3.63;58.59;97613.73;108962;1251;103573;-77
2023/03/16 08:51:05;;;;;;;;;;;;;;;3.77;58.62;97612.64;108935;1251;101371;-78
2023/03/16 08:53:34;;;;;;;;;;;;;;;4.00;58.94;97611.70;108805;1251;99551;-78
2023/03/16 08:56:08;;;;;;;;;;;;;;;4.32;58.47;97614.30;108926;1251;95912;-77
2023/03/16 08:58:37;;;;;;;;;;;;;;;4.63;57.94;97611.45;108903;1251;95690;-77
2023/03/16 09:01:07;;;;;;;;;;;;;;;4.83;57.52;97618.33;108848;1251;103478;-76
2023/03/16 09:03:36;;;;;;;;;;;;;;;4.91;56.86;97617.39;108934;1251;101010;-77
2023/03/16 09:06:06;;;;;;;;;;;;;;;4.90;56.31;97616.11;108923;1251;99850;-76
2023/03/16 09:08:35;;;;;;;;;;;;;;;5.02;56.12;97620.77;108697;1251;96514;-77
2023/03/16 09:11:04;;;;;;;;;;;;;;;5.15;55.54;97619.48;108949;1251;95608;-77
2023/03/16 09:13:32;;;;;;;;;;;;;;;5.55;55.21;97618.77;108920;1250;103579;-77
2023/03/16 09:16:01;;;;;;;;;;;;;;;5.79;54.43;97615.93;108987;1251;101328;-77
2023/03/16 09:18:30;;;;;;;;;;;;;;;5.95;54.11;97621.28;108906;1251;99589;-77
2023/03/16 09:20:59;;;;;;;;;;;;;;;6.00;54.12;97623.71;108955;1251;95569;-78
2023/03/16 09:23:28;;;;;;;;;;;;;;;5.88;53.89;97623.10;108965;1251;95615;-76
2023/03/16 09:26:00;;;;;;;;;;;;;;;5.64;53.48;97625.52;108919;1251;103789;-76
2023/03/16 09:28:30;;;;;;;;;;;;;;;5.44;53.43;97632.14;108961;1251;101330;-76
2023/03/16 09:30:59;;;;;;;;;;;;;;;5.31;53.45;97633.39;108886;1251;98580;-77
2023/03/16 09:33:28;;;;;;;;;;;;;;;5.30;52.95;97634.44;108901;1251;95891;-76
2023/03/16 09:35:57;;;;;;;;;;;;;;;5.16;52.79;97636.88;108916;1251;95638;-77
2023/03/16 09:38:26;;;;;;;;;;;;;;;4.95;52.51;97640.10;108932;1251;103655;-77
2023/03/16 09:41:08;;;;;;;;;;;;;;;4.70;52.22;97637.44;108958;1251;101397;-76
2023/03/16 09:43:36;;;;;;;;;;;;;;;4.41;52.60;97640.44;108918;1251;100395;-78
2023/03/16 09:46:16;;;;;;;;;;;;;;;4.26;52.67;97643.13;108891;1251;95650;-76
2023/03/16 09:48:45;;;;;;;;;;;;;;;4.19;53.03;97645.17;108986;1251;96834;-76
2023/03/16 09:51:19;;;;;;;;;;;;;;;4.50;53.23;97639.26;108941;1251;103521;-77
2023/03/16 09:53:50;;;;;;;;;;;;;;;5.08;52.61;97631.05;108932;1251;101384;-76
2023/03/16 09:56:18;;;;;;;;;;;;;;;5.35;51.92;97636.45;108883;1251;99748;-77
2023/03/16 09:58:46;;;;;;;;;;;;;;;5.46;51.48;97636.58;108923;1251;95609;-76
2023/03/16 10:01:18;;;;;;;;;;;;;;;5.46;51.77;97638.65;108934;1251;95967;-76
2023/03/16 10:03:46;;;;;;;;;;;;;;;5.47;51.69;97643.60;108961;1250;103437;-77
2023/03/16 10:06:15;;;;;;;;;;;;;;;5.43;51.51;97648.51;108927;1251;101349;-77
2023/03/16 10:08:45;;;;;;;;;;;;;;;5.33;51.55;97647.83;108617;1253;99952;-77
2023/03/16 10:11:16;;;;;;;;;;;;;;;5.34;51.29;97649.06;108938;1251;95611;-78
2023/03/16 10:14:01;;;;;;;;;;;;;;;5.26;50.52;97647.23;108911;1251;95609;-76
2023/03/16 10:16:36;;;;;;;;;;;;;;;5.16;50.61;97653.88;108955;1251;103644;-76
2023/03/16 10:19:17;;;;;;;;;;;;;;;5.33;51.09;97648.17;108955;1250;101253;-75
2023/03/16 10:21:45;;;;;;;;;;;;;;;5.98;51.98;97642.34;108925;1251;97469;-76
2023/03/16 10:24:24;;;;;;;;;;;;;;;6.69;50.03;97640.23;108925;1251;95842;-76
2023/03/16 10:26:58;;;;;;;;;;;;;;;7.16;48.49;97639.67;108971;1251;95572;-77
2023/03/16 10:29:32;;;;;;;;;;;;;;;7.30;48.74;97644.73;108945;1251;103065;-76
2023/03/16 10:32:06;;;;;;;;;;;;;;;7.24;48.24;97646.58;108930;1250;101331;-77
2023/03/16 10:34:35;;;;;;;;;;;;;;;7.14;47.85;97650.98;108878;1251;99466;-77
2023/03/16 10:37:04;;;;;;;;;;;;;;;7.10;47.45;97651.84;108943;1251;95576;-76
2023/03/16 10:39:41;;;;;;;;;;;;;;;7.06;47.22;97644.83;108777;1251;95839;-76
2023/03/16 10:42:15;;;;;;;;;;;;;;;7.13;47.37;97642.87;109018;1251;103127;-77
2023/03/16 10:44:44;;;;;;;;;;;;;;;7.44;47.49;97640.16;108959;1251;101174;-78
2023/03/16 10:47:19;;;;;;;;;;;;;;;7.86;47.18;97639.97;108927;1251;99680;-76
2023/03/16 10:49:50;;;;;;;;;;;;;;;8.09;47.10;97640.89;108966;1251;95587;-77
2023/03/16 10:52:28;;;;;;;;;;;;;;;8.15;46.74;97642.99;108923;1251;95560;-76
2023/03/16 10:55:00;;;;;;;;;;;;;;;8.11;46.73;97644.84;108754;1253;103205;-76
2023/03/16 10:57:36;;;;;;;;;;;;;;;7.91;46.72;97642.76;108969;1251;101389;-78
2023/03/16 11:00:24;;;;;;;;;;;;;;;7.75;46.41;97645.30;108946;1251;100162;-77
2023/03/16 11:02:54;;;;;;;;;;;;;;;7.64;46.27;97646.84;108873;1251;95545;-75
2023/03/16 11:05:34;;;;;;;;;;;;;;;7.73;46.36;97647.08;108970;1251;95628;-77
2023/03/16 11:08:03;;;;;;;;;;;;;;;7.96;46.43;97640.24;108870;1251;103157;-77
2023/03/16 11:10:33;;;;;;;;;;;;;;;8.20;46.00;97642.76;108679;1250;101055;-77
2023/03/16 11:13:02;;;;;;;;;;;;;;;8.24;45.46;97646.48;108903;1251;98413;-76
2023/03/16 11:15:36;;;;;;;;;;;;;;;8.21;45.48;97641.56;108929;1254;95598;-76
2023/03/16 11:18:05;;;;;;;;;;;;;;;8.13;45.10;97641.31;109009;1251;95710;-76
2023/03/16 11:20:34;;;;;;;;;;;;;;;7.97;44.63;97640.39;108918;1251;103471;-77
2023/03/16 11:23:02;;;;;;;;;;;;;;;7.89;44.65;97639.65;108404;1250;100725;-76
2023/03/16 11:25:37;;;;;;;;;;;;;;;7.82;44.91;97642.48;108864;1251;99593;-77
2023/03/16 11:28:11;;;;;;;;;;;;;;;7.92;45.06;97637.06;108679;1251;95940;-76
2023/03/16 11:30:42;;;;;;;;;;;;;;;8.28;45.10;97636.94;108954;1251;95570;-76
2023/03/16 11:33:13;;;;;;;;;;;;;;;8.44;44.76;97640.88;108998;1251;102657;-76
2023/03/16 11:35:47;;;;;;;;;;;;;;;8.46;43.95;97635.05;108934;1251;101267;-77
2023/03/16 11:38:16;;;;;;;;;;;;;;;8.36;43.25;97635.24;108727;1251;99900;-77
2023/03/16 11:40:50;;;;;;;;;;;;;;;8.10;43.57;97634.86;108923;1251;95562;-77
2023/03/16 11:43:25;;;;;;;;;;;;;;;7.93;43.59;97632.32;108940;1251;96503;-76
2023/03/16 11:46:10;;;;;;;;;;;;;;;7.70;43.72;97634.47;108834;1251;103602;-76
2023/03/16 11:48:50;;;;;;;;;;;;;;;7.74;44.06;97631.95;108982;1251;101338;-76
2023/03/16 11:51:21;;;;;;;;;;;;;;;8.14;44.30;97625.94;108953;1251;100062;-77
2023/03/16 11:54:08;;;;;;;;;;;;;;;8.70;43.89;97624.05;108926;1251;95524;-76
2023/03/16 11:56:40;;;;;;;;;;;;;;;9.27;43.39;97622.56;108965;1251;96417;-78
2023/03/16 11:59:08;;;;;;;;;;;;;;;9.70;42.23;97617.41;108770;1250;103525;-77
2023/03/16 12:02:01;;;;;;;;;;;;;;;9.85;41.78;97619.76;108931;1251;101110;-77
2023/03/16 12:04:45;;;;;;;;;;;;;;;9.62;41.34;97624.72;108895;1251;108521;-77
2023/03/16 12:07:34;;;;;;;;;;;;;;;9.29;41.44;97626.70;108830;1251;95845;-77
2023/03/16 12:10:12;;;;;;;;;;;;;;;8.95;41.09;97630.02;108932;1251;95656;-77
2023/03/16 12:12:50;;;;;;;;;;;;;;;8.38;40.85;97633.23;108942;1251;103251;-76
2023/03/16 12:15:30;;;;;;;;;;;;;;;8.08;41.53;97636.75;108887;1251;99924;-76
2023/03/16 12:18:05;;;;;;;;;;;;;;;7.86;41.58;97635.33;108855;1251;99938;-76
2023/03/16 12:20:44;;;;;;;;;;;;;;;7.47;41.53;97632.48;108940;1251;95548;-77
2023/03/16 12:23:27;;;;;;;;;;;;;;;7.38;42.38;97632.56;108794;1251;95860;-77
2023/03/16 12:25:58;;;;;;;;;;;;;;;7.64;42.84;97639.33;108982;1251;103539;-76
2023/03/16 12:28:28;;;;;;;;;;;;;;;8.16;42.70;97638.45;108915;1251;101324;-76
2023/03/16 12:30:59;;;;;;;;;;;;;;;8.97;42.44;97634.12;108960;1251;99614;-76
2023/03/16 12:33:30;;;;;;;;;;;;;;;9.66;41.69;97627.66;108883;1251;95591;-78
2023/03/16 12:36:16;;;;;;;;;;;;;;;10.30;40.40;97622.45;108960;1251;95615;-76
2023/03/16 12:38:53;;;;;;;;;;;;;;;10.90;39.48;97619.73;109003;1251;103015;-77
2023/03/16 12:41:34;;;;;;;;;;;;;;;11.07;38.98;97624.35;108905;1251;101369;-78
2023/03/16 12:44:11;;;;;;;;;;;;;;;10.93;38.04;97620.90;108909;1251;100168;-77
2023/03/16 12:46:51;;;;;;;;;;;;;;;10.40;38.14;97625.30;108936;1251;95536;-76
2023/03/16 12:49:19;;;;;;;;;;;;;;;9.86;38.31;97634.94;108914;1251;95617;-76
2023/03/16 12:51:58;;;;;;;;;;;;;;;9.15;38.65;97637.52;108992;1251;103826;-77
2023/03/16 12:54:26;;;;;;;;;;;;;;;8.35;39.12;97640.47;108909;1251;101355;-77
2023/03/16 12:57:15;;;;;;;;;;;;;;;8.01;40.20;97637.64;108915;1251;99930;-77